sensor_id;sensor_type;location;lat;lon;timestamp;temperature;humidity
65584;DHT22;62116;43.582;1.470;2023-05-14T00:00:44;13.51;86.31
65584;DHT22;62116;43.582;1.470;2023-05-14T00:03:11;13.51;86.61
65584;DHT22;62116;43.582;1.470;2023-05-14T00:05:37;13.54;86.71
65584;DHT22;62116;43.582;1.470;2023-05-14T00:08:02;13.53;86.75
65584;DHT22;62116;43.582;1.470;2023-05-14T00:10:28;13.47;86.83
65584;DHT22;62116;43.582;1.470;2023-05-14T00:12:53;13.45;87.19
65584;DHT22;62116;43.582;1.470;2023-05-14T00:15:19;13.44;87.29
65584;DHT22;62116;43.582;1.470;2023-05-14T00:17:44;13.40;87.57
65584;DHT22;62116;43.582;1.470;2023-05-14T00:20:10;13.35;87.79
65584;DHT22;62116;43.582;1.470;2023-05-14T00:22:37;13.34;88.13
65584;DHT22;62116;43.582;1.470;2023-05-14T00:25:02;13.28;88.04
65584;DHT22;62116;43.582;1.470;2023-05-14T00:27:28;13.27;88.36
65584;DHT22;62116;43.582;1.470;2023-05-14T00:29:53;13.25;88.36
65584;DHT22;62116;43.582;1.470;2023-05-14T00:32:19;13.23;88.46
65584;DHT22;62116;43.582;1.470;2023-05-14T00:34:44;13.24;88.73
65584;DHT22;62116;43.582;1.470;2023-05-14T00:37:09;13.27;88.74
65584;DHT22;62116;43.582;1.470;2023-05-14T00:39:35;13.25;88.73
65584;DHT22;62116;43.582;1.470;2023-05-14T00:42:00;13.31;88.67
65584;DHT22;62116;43.582;1.470;2023-05-14T00:44:26;13.35;88.52
65584;DHT22;62116;43.582;1.470;2023-05-14T00:46:51;13.37;88.42
65584;DHT22;62116;43.582;1.470;2023-05-14T00:49:17;13.35;88.43
65584;DHT22;62116;43.582;1.470;2023-05-14T00:51:43;13.34;88.41
65584;DHT22;62116;43.582;1.470;2023-05-14T00:54:13;13.35;88.56
65584;DHT22;62116;43.582;1.470;2023-05-14T00:56:38;13.40;88.44
65584;DHT22;62116;43.582;1.470;2023-05-14T00:59:04;13.40;88.33
65584;DHT22;62116;43.582;1.470;2023-05-14T01:01:29;13.41;88.57
65584;DHT22;62116;43.582;1.470;2023-05-14T01:03:55;13.37;88.27
65584;DHT22;62116;43.582;1.470;2023-05-14T01:14:21;13.33;88.16
65584;DHT22;62116;43.582;1.470;2023-05-14T01:16:53;13.34;88.17
65584;DHT22;62116;43.582;1.470;2023-05-14T01:19:28;13.34;88.22
65584;DHT22;62116;43.582;1.470;2023-05-14T01:21:53;13.31;88.40
65584;DHT22;62116;43.582;1.470;2023-05-14T01:24:19;13.33;88.39
65584;DHT22;62116;43.582;1.470;2023-05-14T01:26:44;13.34;88.26
65584;DHT22;62116;43.582;1.470;2023-05-14T01:29:15;13.33;88.29
65584;DHT22;62116;43.582;1.470;2023-05-14T01:31:44;13.31;88.49
65584;DHT22;62116;43.582;1.470;2023-05-14T01:34:12;13.31;88.60
65584;DHT22;62116;43.582;1.470;2023-05-14T01:36:39;13.31;88.50
65584;DHT22;62116;43.582;1.470;2023-05-14T01:39:05;13.25;88.48
65584;DHT22;62116;43.582;1.470;2023-05-14T01:41:34;13.27;88.52
65584;DHT22;62116;43.582;1.470;2023-05-14T01:44:00;13.27;88.55
65584;DHT22;62116;43.582;1.470;2023-05-14T01:46:32;13.25;88.71
65584;DHT22;62116;43.582;1.470;2023-05-14T01:48:58;13.25;88.76
65584;DHT22;62116;43.582;1.470;2023-05-14T01:51:24;13.24;88.70
65584;DHT22;62116;43.582;1.470;2023-05-14T01:53:49;13.27;88.72
65584;DHT22;62116;43.582;1.470;2023-05-14T01:56:16;13.25;88.81
65584;DHT22;62116;43.582;1.470;2023-05-14T01:58:42;13.24;88.81
65584;DHT22;62116;43.582;1.470;2023-05-14T02:01:07;13.27;88.89
65584;DHT22;62116;43.582;1.470;2023-05-14T02:03:33;13.27;88.71
65584;DHT22;62116;43.582;1.470;2023-05-14T02:05:58;13.28;88.77
65584;DHT22;62116;43.582;1.470;2023-05-14T02:08:23;13.27;88.79
65584;DHT22;62116;43.582;1.470;2023-05-14T02:10:49;13.31;88.74
65584;DHT22;62116;43.582;1.470;2023-05-14T02:13:15;13.33;88.44
65584;DHT22;62116;43.582;1.470;2023-05-14T02:15:41;13.27;88.49
65584;DHT22;62116;43.582;1.470;2023-05-14T02:18:06;13.27;88.76
65584;DHT22;62116;43.582;1.470;2023-05-14T02:20:32;13.25;88.83
65584;DHT22;62116;43.582;1.470;2023-05-14T02:22:57;13.21;88.87
65584;DHT22;62116;43.582;1.470;2023-05-14T02:25:22;13.23;88.83
65584;DHT22;62116;43.582;1.470;2023-05-14T02:27:48;13.24;88.96
65584;DHT22;62116;43.582;1.470;2023-05-14T02:30:13;13.25;88.88
65584;DHT22;62116;43.582;1.470;2023-05-14T02:32:39;13.21;88.81
65584;DHT22;62116;43.582;1.470;2023-05-14T02:35:05;13.23;88.92
65584;DHT22;62116;43.582;1.470;2023-05-14T02:37:30;13.24;88.95
65584;DHT22;62116;43.582;1.470;2023-05-14T02:39:55;13.25;88.87
65584;DHT22;62116;43.582;1.470;2023-05-14T02:42:21;13.27;88.90
65584;DHT22;62116;43.582;1.470;2023-05-14T02:44:46;13.27;88.98
65584;DHT22;62116;43.582;1.470;2023-05-14T02:47:12;13.30;88.91
65584;DHT22;62116;43.582;1.470;2023-05-14T02:49:37;13.28;88.84
65584;DHT22;62116;43.582;1.470;2023-05-14T02:52:04;13.30;88.83
65584;DHT22;62116;43.582;1.470;2023-05-14T02:54:29;13.28;88.98
65584;DHT22;62116;43.582;1.470;2023-05-14T02:56:55;13.28;88.96
65584;DHT22;62116;43.582;1.470;2023-05-14T02:59:22;13.27;88.74
65584;DHT22;62116;43.582;1.470;2023-05-14T03:01:48;13.23;88.88
65584;DHT22;62116;43.582;1.470;2023-05-14T03:04:13;13.20;88.79
65584;DHT22;62116;43.582;1.470;2023-05-14T03:06:39;13.18;88.81
65584;DHT22;62116;43.582;1.470;2023-05-14T03:09:04;13.18;88.58
65584;DHT22;62116;43.582;1.470;2023-05-14T03:11:29;13.20;88.75
65584;DHT22;62116;43.582;1.470;2023-05-14T03:13:55;13.17;88.88
65584;DHT22;62116;43.582;1.470;2023-05-14T03:16:21;13.21;88.84
65584;DHT22;62116;43.582;1.470;2023-05-14T03:18:46;13.20;88.85
65584;DHT22;62116;43.582;1.470;2023-05-14T03:21:12;13.18;88.94
65584;DHT22;62116;43.582;1.470;2023-05-14T03:23:37;13.18;88.95
65584;DHT22;62116;43.582;1.470;2023-05-14T03:26:05;13.18;88.86
65584;DHT22;62116;43.582;1.470;2023-05-14T03:28:30;13.18;88.62
65584;DHT22;62116;43.582;1.470;2023-05-14T03:30:56;13.13;88.77
65584;DHT22;62116;43.582;1.470;2023-05-14T03:33:21;13.17;88.73
65584;DHT22;62116;43.582;1.470;2023-05-14T03:35:47;13.13;88.52
65584;DHT22;62116;43.582;1.470;2023-05-14T03:38:12;13.10;88.67
65584;DHT22;62116;43.582;1.470;2023-05-14T03:40:38;13.08;88.60
65584;DHT22;62116;43.582;1.470;2023-05-14T03:43:03;13.08;88.55
65584;DHT22;62116;43.582;1.470;2023-05-14T03:45:28;13.07;88.54
65584;DHT22;62116;43.582;1.470;2023-05-14T03:47:54;13.03;88.37
65584;DHT22;62116;43.582;1.470;2023-05-14T03:50:20;13.01;88.17
65584;DHT22;62116;43.582;1.470;2023-05-14T03:52:45;13.04;88.29
65584;DHT22;62116;43.582;1.470;2023-05-14T03:55:11;13.00;88.35
65584;DHT22;62116;43.582;1.470;2023-05-14T03:57:36;13.00;88.54
65584;DHT22;62116;43.582;1.470;2023-05-14T04:00:03;12.97;88.65
65584;DHT22;62116;43.582;1.470;2023-05-14T04:02:28;12.97;88.61
65584;DHT22;62116;43.582;1.470;2023-05-14T04:04:54;13.01;88.68
65584;DHT22;62116;43.582;1.470;2023-05-14T04:07:19;13.01;88.77
65584;DHT22;62116;43.582;1.470;2023-05-14T04:09:45;13.04;88.68
65584;DHT22;62116;43.582;1.470;2023-05-14T04:12:10;12.99;88.65
65584;DHT22;62116;43.582;1.470;2023-05-14T04:14:36;13.01;88.97
65584;DHT22;62116;43.582;1.470;2023-05-14T04:17:01;13.04;88.83
65584;DHT22;62116;43.582;1.470;2023-05-14T04:19:26;13.01;88.80
65584;DHT22;62116;43.582;1.470;2023-05-14T04:21:52;13.00;89.05
65584;DHT22;62116;43.582;1.470;2023-05-14T04:24:20;13.01;89.12
65584;DHT22;62116;43.582;1.470;2023-05-14T04:26:45;13.01;89.11
65584;DHT22;62116;43.582;1.470;2023-05-14T04:29:11;13.04;89.15
65584;DHT22;62116;43.582;1.470;2023-05-14T04:31:36;13.01;89.17
65584;DHT22;62116;43.582;1.470;2023-05-14T04:34:01;13.00;89.19
65584;DHT22;62116;43.582;1.470;2023-05-14T04:36:27;13.03;89.07
65584;DHT22;62116;43.582;1.470;2023-05-14T04:38:52;13.07;88.99
65584;DHT22;62116;43.582;1.470;2023-05-14T04:41:18;13.06;89.05
65584;DHT22;62116;43.582;1.470;2023-05-14T04:43:43;13.07;89.03
65584;DHT22;62116;43.582;1.470;2023-05-14T04:46:08;13.08;89.02
65584;DHT22;62116;43.582;1.470;2023-05-14T04:48:34;13.07;88.79
65584;DHT22;62116;43.582;1.470;2023-05-14T04:50:59;13.08;88.87
65584;DHT22;62116;43.582;1.470;2023-05-14T04:53:25;13.10;89.00
65584;DHT22;62116;43.582;1.470;2023-05-14T04:55:50;13.10;88.95
65584;DHT22;62116;43.582;1.470;2023-05-14T04:58:16;13.10;88.78
65584;DHT22;62116;43.582;1.470;2023-05-14T05:00:41;13.11;88.92
65584;DHT22;62116;43.582;1.470;2023-05-14T05:03:06;13.13;88.90
65584;DHT22;62116;43.582;1.470;2023-05-14T05:05:32;13.13;88.59
65584;DHT22;62116;43.582;1.470;2023-05-14T05:07:59;13.11;88.66
65584;DHT22;62116;43.582;1.470;2023-05-14T05:10:27;13.13;88.74
65584;DHT22;62116;43.582;1.470;2023-05-14T05:12:53;13.10;88.63
65584;DHT22;62116;43.582;1.470;2023-05-14T05:15:18;13.14;88.65
65584;DHT22;62116;43.582;1.470;2023-05-14T05:17:43;13.15;88.72
65584;DHT22;62116;43.582;1.470;2023-05-14T05:20:09;13.17;88.71
65584;DHT22;62116;43.582;1.470;2023-05-14T05:22:35;13.17;88.62
65584;DHT22;62116;43.582;1.470;2023-05-14T05:25:01;13.17;88.78
65584;DHT22;62116;43.582;1.470;2023-05-14T05:27:30;13.15;88.71
65584;DHT22;62116;43.582;1.470;2023-05-14T05:29:55;13.14;88.31
65584;DHT22;62116;43.582;1.470;2023-05-14T05:32:21;13.11;88.29
65584;DHT22;62116;43.582;1.470;2023-05-14T05:34:47;13.08;88.03
65584;DHT22;62116;43.582;1.470;2023-05-14T05:37:12;13.07;88.10
65584;DHT22;62116;43.582;1.470;2023-05-14T05:39:39;13.06;88.37
65584;DHT22;62116;43.582;1.470;2023-05-14T05:42:05;13.03;88.08
65584;DHT22;62116;43.582;1.470;2023-05-14T05:44:30;13.01;88.07
65584;DHT22;62116;43.582;1.470;2023-05-14T05:46:55;13.07;88.24
65584;DHT22;62116;43.582;1.470;2023-05-14T05:49:24;13.07;88.38
65584;DHT22;62116;43.582;1.470;2023-05-14T05:51:49;13.07;88.30
65584;DHT22;62116;43.582;1.470;2023-05-14T05:54:14;13.08;88.19
65584;DHT22;62116;43.582;1.470;2023-05-14T05:56:40;13.08;88.15
65584;DHT22;62116;43.582;1.470;2023-05-14T05:59:05;13.10;87.92
65584;DHT22;62116;43.582;1.470;2023-05-14T06:01:31;13.06;87.71
65584;DHT22;62116;43.582;1.470;2023-05-14T06:03:56;13.06;87.94
65584;DHT22;62116;43.582;1.470;2023-05-14T06:06:22;13.07;88.01
65584;DHT22;62116;43.582;1.470;2023-05-14T06:08:47;13.08;88.06
65584;DHT22;62116;43.582;1.470;2023-05-14T06:11:13;13.10;88.27
65584;DHT22;62116;43.582;1.470;2023-05-14T06:13:39;13.13;88.11
65584;DHT22;62116;43.582;1.470;2023-05-14T06:16:05;13.11;88.02
65584;DHT22;62116;43.582;1.470;2023-05-14T06:18:30;13.13;88.04
65584;DHT22;62116;43.582;1.470;2023-05-14T06:20:56;13.13;88.00
65584;DHT22;62116;43.582;1.470;2023-05-14T06:23:24;13.15;88.33
65584;DHT22;62116;43.582;1.470;2023-05-14T06:25:50;13.17;88.25
65584;DHT22;62116;43.582;1.470;2023-05-14T06:28:16;13.21;88.31
65584;DHT22;62116;43.582;1.470;2023-05-14T06:30:41;13.21;88.19
65584;DHT22;62116;43.582;1.470;2023-05-14T06:33:06;13.25;88.20
65584;DHT22;62116;43.582;1.470;2023-05-14T06:35:32;13.27;88.07
65584;DHT22;62116;43.582;1.470;2023-05-14T06:37:58;13.28;88.31
65584;DHT22;62116;43.582;1.470;2023-05-14T06:40:24;13.33;88.36
65584;DHT22;62116;43.582;1.470;2023-05-14T06:42:49;13.37;88.23
65584;DHT22;62116;43.582;1.470;2023-05-14T06:45:15;13.38;88.11
65584;DHT22;62116;43.582;1.470;2023-05-14T06:47:40;13.40;88.07
65584;DHT22;62116;43.582;1.470;2023-05-14T06:50:06;13.43;87.91
65584;DHT22;62116;43.582;1.470;2023-05-14T06:52:32;13.44;87.94
65584;DHT22;62116;43.582;1.470;2023-05-14T06:54:57;13.44;88.05
65584;DHT22;62116;43.582;1.470;2023-05-14T06:57:23;13.50;87.97
65584;DHT22;62116;43.582;1.470;2023-05-14T06:59:48;13.50;87.83
65584;DHT22;62116;43.582;1.470;2023-05-14T07:02:14;13.50;88.12
65584;DHT22;62116;43.582;1.470;2023-05-14T07:04:39;13.59;87.78
65584;DHT22;62116;43.582;1.470;2023-05-14T07:07:05;13.54;87.33
65584;DHT22;62116;43.582;1.470;2023-05-14T07:09:30;13.51;87.52
65584;DHT22;62116;43.582;1.470;2023-05-14T07:11:56;13.53;87.50
65584;DHT22;62116;43.582;1.470;2023-05-14T07:14:21;13.55;87.82
65584;DHT22;62116;43.582;1.470;2023-05-14T07:16:46;13.61;87.91
65584;DHT22;62116;43.582;1.470;2023-05-14T07:19:12;13.64;87.61
65584;DHT22;62116;43.582;1.470;2023-05-14T07:21:37;13.68;87.77
65584;DHT22;62116;43.582;1.470;2023-05-14T07:24:03;13.74;87.59
65584;DHT22;62116;43.582;1.470;2023-05-14T07:26:29;13.79;87.52
65584;DHT22;62116;43.582;1.470;2023-05-14T07:28:55;13.83;87.18
65584;DHT22;62116;43.582;1.470;2023-05-14T07:31:21;13.86;87.06
65584;DHT22;62116;43.582;1.470;2023-05-14T07:33:46;13.94;87.24
65584;DHT22;62116;43.582;1.470;2023-05-14T07:36:11;13.99;87.24
65584;DHT22;62116;43.582;1.470;2023-05-14T07:38:37;14.06;87.05
65584;DHT22;62116;43.582;1.470;2023-05-14T07:41:03;14.10;86.74
65584;DHT22;62116;43.582;1.470;2023-05-14T07:43:28;14.13;86.12
65584;DHT22;62116;43.582;1.470;2023-05-14T07:45:56;14.12;86.15
65584;DHT22;62116;43.582;1.470;2023-05-14T07:48:21;14.18;86.24
65584;DHT22;62116;43.582;1.470;2023-05-14T07:50:50;14.28;86.41
65584;DHT22;62116;43.582;1.470;2023-05-14T07:53:16;14.29;85.76
65584;DHT22;62116;43.582;1.470;2023-05-14T07:55:41;14.33;85.71
65584;DHT22;62116;43.582;1.470;2023-05-14T07:58:08;14.39;85.69
65584;DHT22;62116;43.582;1.470;2023-05-14T08:00:34;14.40;85.33
65584;DHT22;62116;43.582;1.470;2023-05-14T08:02:59;14.42;85.47
65584;DHT22;62116;43.582;1.470;2023-05-14T08:05:25;14.36;84.70
65584;DHT22;62116;43.582;1.470;2023-05-14T08:07:50;14.36;84.99
65584;DHT22;62116;43.582;1.470;2023-05-14T08:10:16;14.34;84.48
65584;DHT22;62116;43.582;1.470;2023-05-14T08:12:41;14.37;84.54
65584;DHT22;62116;43.582;1.470;2023-05-14T08:15:07;14.32;84.10
65584;DHT22;62116;43.582;1.470;2023-05-14T08:17:33;14.29;84.24
65584;DHT22;62116;43.582;1.470;2023-05-14T08:19:58;14.32;84.64
65584;DHT22;62116;43.582;1.470;2023-05-14T08:22:24;14.33;84.71
65584;DHT22;62116;43.582;1.470;2023-05-14T08:24:49;14.33;84.83
65584;DHT22;62116;43.582;1.470;2023-05-14T08:27:15;14.33;84.35
65584;DHT22;62116;43.582;1.470;2023-05-14T08:29:41;14.34;84.63
65584;DHT22;62116;43.582;1.470;2023-05-14T08:32:07;14.33;84.31
65584;DHT22;62116;43.582;1.470;2023-05-14T08:34:33;14.34;84.10
65584;DHT22;62116;43.582;1.470;2023-05-14T08:36:58;14.36;84.44
65584;DHT22;62116;43.582;1.470;2023-05-14T08:39:24;14.42;84.36
65584;DHT22;62116;43.582;1.470;2023-05-14T08:41:50;14.43;84.12
65584;DHT22;62116;43.582;1.470;2023-05-14T08:44:19;14.43;83.77
65584;DHT22;62116;43.582;1.470;2023-05-14T08:46:48;14.42;84.32
65584;DHT22;62116;43.582;1.470;2023-05-14T08:49:23;14.40;84.35
65584;DHT22;62116;43.582;1.470;2023-05-14T08:51:53;14.44;84.64
65584;DHT22;62116;43.582;1.470;2023-05-14T08:54:19;14.43;84.43
65584;DHT22;62116;43.582;1.470;2023-05-14T08:56:47;14.44;84.44
65584;DHT22;62116;43.582;1.470;2023-05-14T08:59:12;14.40;84.21
65584;DHT22;62116;43.582;1.470;2023-05-14T09:01:40;14.42;84.41
65584;DHT22;62116;43.582;1.470;2023-05-14T09:04:06;14.46;84.30
65584;DHT22;62116;43.582;1.470;2023-05-14T09:06:36;14.42;83.91
65584;DHT22;62116;43.582;1.470;2023-05-14T09:09:02;14.43;83.95
65584;DHT22;62116;43.582;1.470;2023-05-14T09:11:28;14.43;83.98
65584;DHT22;62116;43.582;1.470;2023-05-14T09:13:53;14.50;84.37
65584;DHT22;62116;43.582;1.470;2023-05-14T09:16:19;14.50;83.86
65584;DHT22;62116;43.582;1.470;2023-05-14T09:18:45;14.57;83.62
65584;DHT22;62116;43.582;1.470;2023-05-14T09:21:14;14.56;83.76
65584;DHT22;62116;43.582;1.470;2023-05-14T09:23:41;14.64;83.47
65584;DHT22;62116;43.582;1.470;2023-05-14T09:26:08;14.77;83.00
65584;DHT22;62116;43.582;1.470;2023-05-14T09:28:34;14.84;83.26
65584;DHT22;62116;43.582;1.470;2023-05-14T09:31:01;14.98;83.03
65584;DHT22;62116;43.582;1.470;2023-05-14T09:33:27;15.10;82.23
65584;DHT22;62116;43.582;1.470;2023-05-14T09:36:00;15.15;81.01
65584;DHT22;62116;43.582;1.470;2023-05-14T09:38:32;15.20;80.50
65584;DHT22;62116;43.582;1.470;2023-05-14T09:40:59;15.23;80.90
65584;DHT22;62116;43.582;1.470;2023-05-14T09:43:25;15.30;80.42
65584;DHT22;62116;43.582;1.470;2023-05-14T09:45:51;15.39;79.91
65584;DHT22;62116;43.582;1.470;2023-05-14T09:48:17;15.54;80.40
65584;DHT22;62116;43.582;1.470;2023-05-14T09:50:44;15.62;80.06
65584;DHT22;62116;43.582;1.470;2023-05-14T09:53:10;15.65;79.18
65584;DHT22;62116;43.582;1.470;2023-05-14T09:55:36;15.63;78.03
65584;DHT22;62116;43.582;1.470;2023-05-14T09:58:02;15.66;79.29
65584;DHT22;62116;43.582;1.470;2023-05-14T10:00:30;15.72;78.46
65584;DHT22;62116;43.582;1.470;2023-05-14T10:02:57;15.78;77.93
65584;DHT22;62116;43.582;1.470;2023-05-14T10:05:23;15.81;78.31
65584;DHT22;62116;43.582;1.470;2023-05-14T10:07:50;15.78;77.85
65584;DHT22;62116;43.582;1.470;2023-05-14T10:10:23;15.82;77.18
65584;DHT22;62116;43.582;1.470;2023-05-14T10:12:52;15.89;77.77
65584;DHT22;62116;43.582;1.470;2023-05-14T10:15:24;15.98;77.94
65584;DHT22;62116;43.582;1.470;2023-05-14T10:17:55;16.03;76.48
65584;DHT22;62116;43.582;1.470;2023-05-14T10:20:23;16.20;76.19
65584;DHT22;62116;43.582;1.470;2023-05-14T10:22:49;16.26;75.29
65584;DHT22;62116;43.582;1.470;2023-05-14T10:25:15;16.24;75.25
65584;DHT22;62116;43.582;1.470;2023-05-14T10:27:41;16.17;74.72
65584;DHT22;62116;43.582;1.470;2023-05-14T10:30:10;16.17;74.11
65584;DHT22;62116;43.582;1.470;2023-05-14T10:32:37;16.14;74.09
65584;DHT22;62116;43.582;1.470;2023-05-14T10:35:14;16.16;74.53
65584;DHT22;62116;43.582;1.470;2023-05-14T10:37:40;16.19;75.80
65584;DHT22;62116;43.582;1.470;2023-05-14T10:40:06;16.22;75.49
65584;DHT22;62116;43.582;1.470;2023-05-14T10:42:33;16.27;74.68
65584;DHT22;62116;43.582;1.470;2023-05-14T10:45:01;16.29;73.70
65584;DHT22;62116;43.582;1.470;2023-05-14T10:47:30;16.29;73.97
65584;DHT22;62116;43.582;1.470;2023-05-14T10:50:01;16.40;74.08
65584;DHT22;62116;43.582;1.470;2023-05-14T10:52:28;16.52;74.60
65584;DHT22;62116;43.582;1.470;2023-05-14T10:54:58;16.56;73.39
65584;DHT22;62116;43.582;1.470;2023-05-14T10:57:26;16.59;73.39
65584;DHT22;62116;43.582;1.470;2023-05-14T10:59:56;16.70;74.17
65584;DHT22;62116;43.582;1.470;2023-05-14T11:02:25;16.77;72.73
65584;DHT22;62116;43.582;1.470;2023-05-14T11:05:01;16.80;72.53
65584;DHT22;62116;43.582;1.470;2023-05-14T11:07:32;16.95;72.32
65584;DHT22;62116;43.582;1.470;2023-05-14T11:12:41;17.11;71.71
65584;DHT22;62116;43.582;1.470;2023-05-14T11:15:09;17.22;71.42
65584;DHT22;62116;43.582;1.470;2023-05-14T11:17:37;17.32;70.46
65584;DHT22;62116;43.582;1.470;2023-05-14T11:20:02;17.32;69.76
65584;DHT22;62116;43.582;1.470;2023-05-14T11:22:30;17.38;70.97
65584;DHT22;62116;43.582;1.470;2023-05-14T11:24:55;17.39;70.02
65584;DHT22;62116;43.582;1.470;2023-05-14T11:27:22;17.43;70.21
65584;DHT22;62116;43.582;1.470;2023-05-14T11:29:48;17.39;69.98
65584;DHT22;62116;43.582;1.470;2023-05-14T11:32:16;17.28;70.86
65584;DHT22;62116;43.582;1.470;2023-05-14T11:34:42;17.21;70.59
65584;DHT22;62116;43.582;1.470;2023-05-14T11:37:12;17.27;69.71
65584;DHT22;62116;43.582;1.470;2023-05-14T11:39:39;17.35;70.19
65584;DHT22;62116;43.582;1.470;2023-05-14T11:42:11;17.49;70.37
65584;DHT22;62116;43.582;1.470;2023-05-14T11:44:38;17.62;71.23
65584;DHT22;62116;43.582;1.470;2023-05-14T11:47:04;17.68;69.88
65584;DHT22;62116;43.582;1.470;2023-05-14T11:49:30;17.71;69.07
65584;DHT22;62116;43.582;1.470;2023-05-14T11:52:06;17.75;68.07
65584;DHT22;62116;43.582;1.470;2023-05-14T11:54:33;17.69;68.74
65584;DHT22;62116;43.582;1.470;2023-05-14T11:57:01;17.75;68.18
65584;DHT22;62116;43.582;1.470;2023-05-14T11:59:31;17.82;67.88
65584;DHT22;62116;43.582;1.470;2023-05-14T12:01:57;17.87;67.05
65584;DHT22;62116;43.582;1.470;2023-05-14T12:04:23;17.90;66.79
65584;DHT22;62116;43.582;1.470;2023-05-14T12:06:49;17.99;66.81
65584;DHT22;62116;43.582;1.470;2023-05-14T12:09:16;18.02;65.74
65584;DHT22;62116;43.582;1.470;2023-05-14T12:11:43;18.07;66.10
65584;DHT22;62116;43.582;1.470;2023-05-14T12:14:11;18.13;66.30
65584;DHT22;62116;43.582;1.470;2023-05-14T12:16:39;18.12;64.96
65584;DHT22;62116;43.582;1.470;2023-05-14T12:19:04;18.10;65.66
65584;DHT22;62116;43.582;1.470;2023-05-14T12:21:30;18.02;66.37
65584;DHT22;62116;43.582;1.470;2023-05-14T12:23:59;17.92;67.37
65584;DHT22;62116;43.582;1.470;2023-05-14T12:26:25;17.81;68.78
65584;DHT22;62116;43.582;1.470;2023-05-14T12:29:01;17.66;68.56
65584;DHT22;62116;43.582;1.470;2023-05-14T12:31:31;17.48;67.69
65584;DHT22;62116;43.582;1.470;2023-05-14T12:33:56;17.42;69.48
65584;DHT22;62116;43.582;1.470;2023-05-14T12:36:22;17.45;69.14
65584;DHT22;62116;43.582;1.470;2023-05-14T12:38:49;17.46;67.41
65584;DHT22;62116;43.582;1.470;2023-05-14T12:41:15;17.56;67.18
65584;DHT22;62116;43.582;1.470;2023-05-14T12:43:46;17.81;68.22
65584;DHT22;62116;43.582;1.470;2023-05-14T12:46:12;18.00;68.11
65584;DHT22;62116;43.582;1.470;2023-05-14T12:48:38;18.17;66.96
65584;DHT22;62116;43.582;1.470;2023-05-14T12:51:03;18.30;66.65
65584;DHT22;62116;43.582;1.470;2023-05-14T12:53:28;18.41;65.82
65584;DHT22;62116;43.582;1.470;2023-05-14T12:55:54;18.51;65.52
65584;DHT22;62116;43.582;1.470;2023-05-14T12:58:19;18.60;64.79
65584;DHT22;62116;43.582;1.470;2023-05-14T13:00:45;18.70;62.95
65584;DHT22;62116;43.582;1.470;2023-05-14T13:03:13;18.71;63.96
65584;DHT22;62116;43.582;1.470;2023-05-14T13:05:38;18.67;63.72
65584;DHT22;62116;43.582;1.470;2023-05-14T13:08:04;18.50;63.90
65584;DHT22;62116;43.582;1.470;2023-05-14T13:10:29;18.41;64.81
65584;DHT22;62116;43.582;1.470;2023-05-14T13:12:55;18.33;65.25
65584;DHT22;62116;43.582;1.470;2023-05-14T13:15:21;18.30;65.35
65584;DHT22;62116;43.582;1.470;2023-05-14T13:17:47;18.27;66.17
65584;DHT22;62116;43.582;1.470;2023-05-14T13:20:12;18.30;66.95
65584;DHT22;62116;43.582;1.470;2023-05-14T13:22:38;18.37;65.16
65584;DHT22;62116;43.582;1.470;2023-05-14T13:25:04;18.44;64.54
65584;DHT22;62116;43.582;1.470;2023-05-14T13:27:30;18.56;65.50
65584;DHT22;62116;43.582;1.470;2023-05-14T13:29:55;18.68;65.56
65584;DHT22;62116;43.582;1.470;2023-05-14T13:32:21;18.92;66.00
65584;DHT22;62116;43.582;1.470;2023-05-14T13:34:46;19.10;64.80
65584;DHT22;62116;43.582;1.470;2023-05-14T13:37:12;19.28;64.28
65584;DHT22;62116;43.582;1.470;2023-05-14T13:39:37;19.38;63.38
65584;DHT22;62116;43.582;1.470;2023-05-14T13:42:03;19.42;60.65
65584;DHT22;62116;43.582;1.470;2023-05-14T13:44:29;19.39;61.21
65584;DHT22;62116;43.582;1.470;2023-05-14T13:46:54;19.36;60.93
65584;DHT22;62116;43.582;1.470;2023-05-14T13:49:20;19.31;60.00
65584;DHT22;62116;43.582;1.470;2023-05-14T13:51:45;19.26;59.48
65584;DHT22;62116;43.582;1.470;2023-05-14T13:54:10;19.18;60.79
65584;DHT22;62116;43.582;1.470;2023-05-14T13:56:36;19.12;61.19
65584;DHT22;62116;43.582;1.470;2023-05-14T13:59:01;19.08;62.24
65584;DHT22;62116;43.582;1.470;2023-05-14T14:01:27;19.08;61.88
65584;DHT22;62116;43.582;1.470;2023-05-14T14:03:54;19.18;62.37
65584;DHT22;62116;43.582;1.470;2023-05-14T14:06:20;19.28;61.93
65584;DHT22;62116;43.582;1.470;2023-05-14T14:08:45;19.41;62.39
65584;DHT22;62116;43.582;1.470;2023-05-14T14:11:11;19.51;61.93
65584;DHT22;62116;43.582;1.470;2023-05-14T14:13:38;19.65;61.78
65584;DHT22;62116;43.582;1.470;2023-05-14T14:16:04;19.72;60.60
65584;DHT22;62116;43.582;1.470;2023-05-14T14:18:30;19.70;60.00
65584;DHT22;62116;43.582;1.470;2023-05-14T14:20:56;19.59;58.76
65584;DHT22;62116;43.582;1.470;2023-05-14T14:23:21;19.44;59.86
65584;DHT22;62116;43.582;1.470;2023-05-14T14:25:47;19.39;61.34
65584;DHT22;62116;43.582;1.470;2023-05-14T14:28:12;19.22;61.76
65584;DHT22;62116;43.582;1.470;2023-05-14T14:30:38;19.16;61.27
65584;DHT22;62116;43.582;1.470;2023-05-14T14:33:03;19.16;61.57
65584;DHT22;62116;43.582;1.470;2023-05-14T14:35:28;19.21;61.53
65584;DHT22;62116;43.582;1.470;2023-05-14T14:37:54;19.24;61.43
65584;DHT22;62116;43.582;1.470;2023-05-14T14:40:20;19.35;61.57
65584;DHT22;62116;43.582;1.470;2023-05-14T14:42:47;19.42;62.10
65584;DHT22;62116;43.582;1.470;2023-05-14T14:45:13;19.54;61.45
65584;DHT22;62116;43.582;1.470;2023-05-14T14:47:43;19.62;59.83
65584;DHT22;62116;43.582;1.470;2023-05-14T14:50:09;19.67;57.70
65584;DHT22;62116;43.582;1.470;2023-05-14T14:52:35;19.73;57.40
65584;DHT22;62116;43.582;1.470;2023-05-14T14:55:00;19.76;57.79
65584;DHT22;62116;43.582;1.470;2023-05-14T14:57:26;19.82;57.36
65584;DHT22;62116;43.582;1.470;2023-05-14T14:59:51;19.82;57.40
65584;DHT22;62116;43.582;1.470;2023-05-14T15:02:17;19.73;57.27
65584;DHT22;62116;43.582;1.470;2023-05-14T15:04:42;19.66;57.79
65584;DHT22;62116;43.582;1.470;2023-05-14T15:07:07;19.58;58.06
65584;DHT22;62116;43.582;1.470;2023-05-14T15:09:33;19.56;58.80
65584;DHT22;62116;43.582;1.470;2023-05-14T15:11:58;19.58;58.36
65584;DHT22;62116;43.582;1.470;2023-05-14T15:14:24;19.61;57.95
65584;DHT22;62116;43.582;1.470;2023-05-14T15:16:49;19.67;58.17
65584;DHT22;62116;43.582;1.470;2023-05-14T15:19:15;19.72;57.47
65584;DHT22;62116;43.582;1.470;2023-05-14T15:21:41;19.77;56.58
65584;DHT22;62116;43.582;1.470;2023-05-14T15:24:10;19.85;60.73
65584;DHT22;62116;43.582;1.470;2023-05-14T15:26:36;20.00;63.78
65584;DHT22;62116;43.582;1.470;2023-05-14T15:29:02;19.94;64.66
65584;DHT22;62116;43.582;1.470;2023-05-14T15:31:28;19.89;65.01
65584;DHT22;62116;43.582;1.470;2023-05-14T15:33:54;19.73;64.54